createdAt,value
2024-02-29T00:00:49.625Z,100298.83
2024-02-29T00:03:17.622Z,100298.66
2024-02-29T00:05:45.262Z,100300.21
2024-02-29T00:08:13.037Z,100299.11
2024-02-29T00:10:40.687Z,100301.05
2024-02-29T00:13:08.287Z,100301.49
2024-02-29T00:18:04.293Z,100300.55
2024-02-29T00:20:32.056Z,100299.65
2024-02-29T00:23:03.096Z,100298.34
2024-02-29T00:25:30.960Z,100300.36
2024-02-29T00:27:58.750Z,100300.46
2024-02-29T00:30:26.523Z,100301.86
2024-02-29T00:32:56.733Z,100308.05
2024-02-29T00:35:25.494Z,100308.20
2024-02-29T00:37:53.348Z,100310.42
2024-02-29T00:40:20.964Z,100306.06
2024-02-29T00:42:48.794Z,100306.30
2024-02-29T00:45:16.553Z,100306.38
2024-02-29T00:47:44.455Z,100305.09
2024-02-29T00:50:12.175Z,100306.55
2024-02-29T00:52:39.954Z,100305.61
2024-02-29T00:55:07.621Z,100307.09
2024-02-29T00:57:35.599Z,100306.14
2024-02-29T01:00:03.235Z,100304.08
2024-02-29T01:02:31.301Z,100306.67
2024-02-29T01:04:58.861Z,100306.32
2024-02-29T01:07:26.539Z,100304.20
2024-02-29T01:09:54.403Z,100301.14
2024-02-29T01:12:22.165Z,100297.12
2024-02-29T01:14:49.910Z,100293.52
2024-02-29T01:17:17.681Z,100290.38
2024-02-29T01:19:45.650Z,100290.98
2024-02-29T01:22:15.828Z,100286.34
2024-02-29T01:24:45.820Z,100285.16
2024-02-29T01:27:13.664Z,100282.95
2024-02-29T01:29:41.312Z,100283.52
2024-02-29T01:32:18.350Z,100281.99
2024-02-29T01:34:50.876Z,100282.06
2024-02-29T01:37:18.642Z,100279.67
2024-02-29T01:39:46.542Z,100277.11
2024-02-29T01:42:14.584Z,100279.72
2024-02-29T01:44:42.236Z,100280.10
2024-02-29T01:47:10.002Z,100277.02
2024-02-29T01:49:37.659Z,100272.89
2024-02-29T01:52:05.369Z,100276.46
2024-02-29T01:54:33.167Z,100272.97
2024-02-29T01:57:00.948Z,100273.61
2024-02-29T01:59:28.826Z,100273.13
2024-02-29T02:01:57.014Z,100264.77
2024-02-29T02:04:24.754Z,100263.73
2024-02-29T02:06:52.558Z,100261.52
2024-02-29T02:09:20.488Z,100263.24
2024-02-29T02:11:48.249Z,100260.77
2024-02-29T02:14:16.120Z,100257.59
2024-02-29T02:16:43.780Z,100259.34
2024-02-29T02:19:11.601Z,100258.83
2024-02-29T02:21:39.339Z,100259.48
2024-02-29T02:24:07.484Z,100253.15
2024-02-29T02:26:35.208Z,100251.18
2024-02-29T02:29:03.009Z,100248.23
2024-02-29T02:31:30.683Z,100244.14
2024-02-29T02:33:58.460Z,100240.47
2024-02-29T02:36:26.192Z,100243.42
2024-02-29T02:38:53.760Z,100239.28
2024-02-29T02:41:21.508Z,100239.64
2024-02-29T02:43:49.288Z,100233.24
2024-02-29T02:46:17.393Z,100230.32
2024-02-29T02:48:45.256Z,100225.77
2024-02-29T02:51:12.981Z,100223.66
2024-02-29T02:53:40.853Z,100220.14
2024-02-29T02:56:08.610Z,100220.02
2024-02-29T02:58:36.379Z,100219.08
2024-02-29T03:01:04.365Z,100220.79
2024-02-29T03:03:32.231Z,100222.54
2024-02-29T03:06:00.280Z,100224.20
2024-02-29T03:08:27.830Z,100230.95
2024-02-29T03:10:55.733Z,100230.17
2024-02-29T03:13:23.567Z,100233.48
2024-02-29T03:15:51.350Z,100231.84
2024-02-29T03:18:19.313Z,100227.34
2024-02-29T03:20:47.174Z,100227.60
2024-02-29T03:23:14.944Z,100220.46
2024-02-29T03:25:42.712Z,100224.40
2024-02-29T03:28:10.913Z,100228.54
2024-02-29T03:30:38.886Z,100227.38
2024-02-29T03:33:06.759Z,100230.44
2024-02-29T03:35:34.365Z,100227.48
2024-02-29T03:38:02.247Z,100222.67
2024-02-29T03:40:29.814Z,100222.52
2024-02-29T03:42:57.627Z,100220.54
2024-02-29T03:45:25.429Z,100219.29
2024-02-29T03:47:53.109Z,100217.20
2024-02-29T03:50:21.155Z,100217.48
2024-02-29T03:52:48.818Z,100217.95
2024-02-29T03:55:16.661Z,100219.01
2024-02-29T03:57:44.487Z,100216.50
2024-02-29T04:00:12.477Z,100211.09
2024-02-29T04:02:40.389Z,100208.25
2024-02-29T04:05:08.041Z,100209.45
2024-02-29T04:07:35.822Z,100204.42
2024-02-29T04:10:03.747Z,100207.24
2024-02-29T04:12:31.892Z,100203.41
2024-02-29T04:14:59.822Z,100203.66
2024-02-29T04:17:27.500Z,100196.66
2024-02-29T04:19:55.149Z,100198.27
2024-02-29T04:22:22.853Z,100192.40
2024-02-29T04:24:50.645Z,100192.79
2024-02-29T04:27:18.330Z,100196.52
2024-02-29T04:29:46.101Z,100196.74
2024-02-29T04:32:13.757Z,100198.55
2024-02-29T04:34:42.042Z,100198.86
2024-02-29T04:37:09.911Z,100195.36
2024-02-29T04:39:37.883Z,100194.77
2024-02-29T04:42:05.529Z,100194.72
2024-02-29T04:44:33.396Z,100192.77
2024-02-29T04:47:01.259Z,100192.79
2024-02-29T04:49:28.973Z,100190.02
2024-02-29T04:51:56.741Z,100185.83
2024-02-29T04:54:25.070Z,100187.12
2024-02-29T04:56:52.836Z,100184.58
2024-02-29T04:59:20.482Z,100183.27
2024-02-29T05:01:48.483Z,100177.58
2024-02-29T05:04:16.571Z,100179.45
2024-02-29T05:06:44.319Z,100177.56
2024-02-29T05:09:12.062Z,100178.40
2024-02-29T05:11:40.150Z,100181.90
2024-02-29T05:14:08.311Z,100182.17
2024-02-29T05:16:36.192Z,100176.80
2024-02-29T05:19:04.037Z,100175.11
2024-02-29T05:21:31.858Z,100171.52
2024-02-29T05:23:59.662Z,100172.92
2024-02-29T05:26:27.431Z,100174.63
2024-02-29T05:28:55.302Z,100171.95
2024-02-29T05:31:23.170Z,100170.13
2024-02-29T05:33:51.139Z,100171.64
2024-02-29T05:36:19.416Z,100175.52
2024-02-29T05:38:47.275Z,100170.07
2024-02-29T05:41:15.196Z,100167.63
2024-02-29T05:43:42.809Z,100168.80
2024-02-29T05:46:10.710Z,100167.74
2024-02-29T05:48:38.663Z,100173.55
2024-02-29T05:51:06.498Z,100173.84
2024-02-29T05:53:34.266Z,100178.20
2024-02-29T05:56:02.850Z,100174.84
2024-02-29T05:58:30.616Z,100176.27
2024-02-29T06:00:58.694Z,100179.73
2024-02-29T06:03:26.574Z,100179.13
2024-02-29T06:05:54.209Z,100181.00
2024-02-29T06:08:22.077Z,100183.02
2024-02-29T06:10:49.753Z,100175.52
2024-02-29T06:13:17.717Z,100175.95
2024-02-29T06:15:45.825Z,100174.45
2024-02-29T06:18:13.979Z,100175.80
2024-02-29T06:20:41.725Z,100176.05
2024-02-29T06:23:09.474Z,100172.72
2024-02-29T06:25:37.135Z,100167.36
2024-02-29T06:28:04.842Z,100167.27
2024-02-29T06:30:32.258Z,100169.02
2024-02-29T06:32:59.964Z,100168.52
2024-02-29T06:35:27.882Z,100170.30
2024-02-29T06:37:55.559Z,100170.02
2024-02-29T06:40:23.562Z,100172.48
2024-02-29T06:42:51.253Z,100172.63
2024-02-29T06:45:19.040Z,100177.98
2024-02-29T06:47:46.882Z,100176.77
2024-02-29T06:50:14.589Z,100171.44
2024-02-29T06:52:42.337Z,100174.83
2024-02-29T06:55:10.344Z,100171.09
2024-02-29T06:57:38.283Z,100172.16
2024-02-29T07:00:06.029Z,100173.77
2024-02-29T07:02:34.141Z,100174.16
2024-02-29T07:05:01.968Z,100166.81
2024-02-29T07:07:29.629Z,100167.95
2024-02-29T07:09:57.440Z,100168.91
2024-02-29T07:12:25.263Z,100166.67
2024-02-29T07:14:52.932Z,100167.13
2024-02-29T07:17:20.687Z,100165.70
2024-02-29T07:19:48.460Z,100164.83
2024-02-29T07:22:16.214Z,100161.30
2024-02-29T07:24:44.540Z,100160.70
2024-02-29T07:27:12.363Z,100160.45
2024-02-29T07:29:40.224Z,100161.45
2024-02-29T07:32:07.990Z,100161.74
2024-02-29T07:34:35.752Z,100159.08
2024-02-29T07:37:03.597Z,100160.50
2024-02-29T07:39:31.184Z,100156.67
2024-02-29T07:41:58.954Z,100157.41
2024-02-29T07:44:26.930Z,100155.77
2024-02-29T07:46:54.785Z,100151.49
2024-02-29T07:49:22.668Z,100148.64
2024-02-29T07:51:50.416Z,100146.89
2024-02-29T07:54:18.165Z,100144.05
2024-02-29T07:56:45.834Z,100141.55
2024-02-29T07:59:13.613Z,100141.48
2024-02-29T08:01:41.687Z,100134.48
2024-02-29T08:04:09.929Z,100134.83
2024-02-29T08:06:37.781Z,100139.46
2024-02-29T08:09:07.474Z,100145.03
2024-02-29T08:11:36.544Z,100142.44
2024-02-29T08:14:04.374Z,100137.95
2024-02-29T08:16:32.041Z,100133.36
2024-02-29T08:18:59.744Z,100125.48
2024-02-29T08:21:27.679Z,100125.08
2024-02-29T08:23:55.546Z,100129.06
2024-02-29T08:26:23.814Z,100126.83
2024-02-29T08:28:51.598Z,100124.38
2024-02-29T08:31:19.668Z,100126.16
2024-02-29T08:33:47.659Z,100123.06
2024-02-29T08:36:15.490Z,100121.94
2024-02-29T08:38:43.341Z,100121.38
2024-02-29T08:41:11.117Z,100118.55
2024-02-29T08:43:38.972Z,100114.26
2024-02-29T08:46:06.693Z,100113.61
2024-02-29T08:48:34.963Z,100121.38
2024-02-29T08:51:02.801Z,100115.64
2024-02-29T08:53:30.646Z,100113.90
2024-02-29T08:55:58.419Z,100111.30
2024-02-29T08:58:26.244Z,100095.48
2024-02-29T09:00:54.084Z,100080.64
2024-02-29T09:03:22.013Z,100085.59
2024-02-29T09:05:49.900Z,100079.84
2024-02-29T09:08:20.689Z,100080.60
2024-02-29T09:10:49.864Z,100089.06
2024-02-29T09:13:29.605Z,100085.67
2024-02-29T09:16:02.659Z,100084.16
2024-02-29T09:18:30.501Z,100084.39
2024-02-29T09:20:58.270Z,100089.02
2024-02-29T09:23:26.238Z,100084.55
2024-02-29T09:25:54.107Z,100087.34
2024-02-29T09:28:22.329Z,100083.27
2024-02-29T09:30:50.276Z,100082.70
2024-02-29T09:33:18.360Z,100085.00
2024-02-29T09:35:46.294Z,100077.97
2024-02-29T09:38:14.180Z,100072.52
2024-02-29T09:40:49.196Z,100071.64
2024-02-29T09:43:20.466Z,100069.05
2024-02-29T09:45:48.323Z,100069.02
2024-02-29T09:48:16.511Z,100074.89
2024-02-29T09:50:44.143Z,100076.11
2024-02-29T09:53:11.911Z,100079.35
2024-02-29T09:55:39.463Z,100073.92
2024-02-29T09:58:07.240Z,100075.87
2024-02-29T10:00:34.683Z,100078.55
2024-02-29T10:03:02.541Z,100077.84
2024-02-29T10:05:30.202Z,100073.59
2024-02-29T10:07:57.977Z,100071.59
2024-02-29T10:10:25.837Z,100066.98
2024-02-29T10:12:54.164Z,100061.73
2024-02-29T10:15:22.083Z,100055.51
2024-02-29T10:17:50.260Z,100050.17
2024-02-29T10:20:18.532Z,100045.23
2024-02-29T10:22:48.452Z,100043.13
2024-02-29T10:25:17.999Z,100034.02
2024-02-29T10:27:45.862Z,100033.48
2024-02-29T10:30:13.693Z,100029.95
2024-02-29T10:32:41.464Z,100029.34
2024-02-29T10:35:09.318Z,100024.10
2024-02-29T10:37:37.489Z,100023.48
2024-02-29T10:40:08.505Z,100014.54
2024-02-29T10:42:36.542Z,100014.02
2024-02-29T10:45:04.468Z,100004.82
2024-02-29T10:47:32.373Z,100003.95
2024-02-29T10:50:00.230Z,99994.70
2024-02-29T10:52:28.255Z,99989.45
2024-02-29T10:54:56.160Z,99989.80
2024-02-29T10:57:23.999Z,99981.95
2024-02-29T10:59:51.765Z,99982.98
2024-02-29T11:02:19.523Z,99979.16
2024-02-29T11:04:47.353Z,99976.39
2024-02-29T11:07:15.025Z,99978.52
2024-02-29T11:09:42.932Z,99966.34
2024-02-29T11:12:10.875Z,99968.45
2024-02-29T11:14:39.000Z,99965.48
2024-02-29T11:17:07.142Z,99962.02
2024-02-29T11:19:42.366Z,99962.23
2024-02-29T11:22:17.060Z,99962.74
2024-02-29T11:24:45.323Z,99958.87
2024-02-29T11:27:13.337Z,99953.95
2024-02-29T11:29:41.111Z,99954.66
2024-02-29T11:32:10.436Z,99956.78
2024-02-29T11:34:38.363Z,99947.55
2024-02-29T11:37:06.497Z,99947.77
2024-02-29T11:39:34.404Z,99944.14
2024-02-29T11:42:02.103Z,99943.62
2024-02-29T11:44:29.849Z,99941.15
2024-02-29T11:46:57.603Z,99942.68
2024-02-29T11:49:25.506Z,99937.13
2024-02-29T11:51:53.365Z,99937.73
2024-02-29T11:54:23.307Z,99934.73
2024-02-29T11:56:51.314Z,99933.41
2024-02-29T11:59:18.992Z,99930.46
2024-02-29T12:01:47.274Z,99927.90
2024-02-29T12:04:15.340Z,99930.38
2024-02-29T12:06:43.318Z,99927.10
2024-02-29T12:09:11.074Z,99924.93
2024-02-29T12:11:38.923Z,99921.29
2024-02-29T12:14:06.699Z,99919.38
2024-02-29T12:16:35.077Z,99914.27
2024-02-29T12:19:02.886Z,99916.93
2024-02-29T12:21:30.592Z,99916.30
2024-02-29T12:23:58.364Z,99909.71
2024-02-29T12:26:26.121Z,99908.85
2024-02-29T12:28:53.793Z,99901.70
2024-02-29T12:31:21.612Z,99897.95
2024-02-29T12:33:49.382Z,99896.67
2024-02-29T12:36:17.266Z,99891.35
2024-02-29T12:38:45.575Z,99891.95
2024-02-29T12:41:13.422Z,99891.04
2024-02-29T12:43:41.299Z,99893.23
2024-02-29T12:46:09.151Z,99885.48
2024-02-29T12:48:37.034Z,99886.55
2024-02-29T12:51:05.067Z,99882.04
2024-02-29T12:53:32.863Z,99882.60
2024-02-29T12:56:00.627Z,99878.59
2024-02-29T12:58:28.947Z,99879.07
2024-02-29T13:00:56.875Z,99876.20
2024-02-29T13:03:24.526Z,99872.30
2024-02-29T13:05:52.298Z,99867.23
2024-02-29T13:08:20.171Z,99863.96
2024-02-29T13:10:48.026Z,99864.52
2024-02-29T13:13:15.834Z,99859.03
2024-02-29T13:15:43.679Z,99848.85
2024-02-29T13:18:11.362Z,99844.20
2024-02-29T13:20:39.201Z,99839.53
2024-02-29T13:23:07.053Z,99834.27
2024-02-29T13:25:34.927Z,99834.14
2024-02-29T13:28:02.700Z,99832.41
2024-02-29T13:30:30.438Z,99832.60
2024-02-29T13:32:58.360Z,99824.91
2024-02-29T13:35:26.385Z,99825.58
2024-02-29T13:37:54.241Z,99825.91
2024-02-29T13:40:21.942Z,99823.79
2024-02-29T13:42:49.908Z,99821.50
2024-02-29T13:45:17.958Z,99819.55
2024-02-29T13:47:45.737Z,99815.99
2024-02-29T13:50:13.482Z,99811.94
2024-02-29T13:52:41.343Z,99813.70
2024-02-29T13:55:09.032Z,99806.55
2024-02-29T13:57:36.873Z,99800.64
2024-02-29T14:00:04.566Z,99798.77
2024-02-29T14:02:32.305Z,99795.66
2024-02-29T14:05:00.405Z,99791.28
2024-02-29T14:07:28.360Z,99789.70
2024-02-29T14:09:56.363Z,99785.86
2024-02-29T14:12:24.082Z,99784.08
2024-02-29T14:14:51.838Z,99777.41
2024-02-29T14:17:19.511Z,99776.88
2024-02-29T14:19:47.457Z,99774.95
2024-02-29T14:22:15.466Z,99770.58
2024-02-29T14:24:43.274Z,99764.61
2024-02-29T14:27:11.379Z,99757.45
2024-02-29T14:29:39.651Z,99756.36
2024-02-29T14:32:07.406Z,99759.49
2024-02-29T14:34:35.241Z,99757.20
2024-02-29T14:37:03.118Z,99755.23
2024-02-29T14:39:30.801Z,99752.43
2024-02-29T14:41:58.455Z,99753.10
2024-02-29T14:44:26.236Z,99748.35
2024-02-29T14:46:54.303Z,99742.73
2024-02-29T14:49:22.392Z,99739.77
2024-02-29T14:51:50.364Z,99735.39
2024-02-29T14:54:18.235Z,99729.63
2024-02-29T14:56:46.056Z,99727.35
2024-02-29T14:59:13.828Z,99726.46
2024-02-29T15:01:41.583Z,99723.30
2024-02-29T15:04:09.482Z,99725.73
2024-02-29T15:06:37.645Z,99722.56
2024-02-29T15:09:05.487Z,99719.23
2024-02-29T15:11:33.318Z,99716.96
2024-02-29T15:14:01.124Z,99714.34
2024-02-29T15:16:29.164Z,99712.92
2024-02-29T15:18:56.990Z,99708.86
2024-02-29T15:21:24.943Z,99712.34
2024-02-29T15:23:52.805Z,99706.52
2024-02-29T15:26:20.572Z,99703.85
2024-02-29T15:28:48.538Z,99698.71
2024-02-29T15:31:16.411Z,99698.11
2024-02-29T15:33:44.335Z,99698.05
2024-02-29T15:36:12.031Z,99699.02
2024-02-29T15:38:39.816Z,99694.37
2024-02-29T15:41:07.671Z,99693.60
2024-02-29T15:43:35.415Z,99688.45
2024-02-29T15:46:03.332Z,99688.20
2024-02-29T15:48:31.375Z,99688.33
2024-02-29T15:50:59.347Z,99683.01
2024-02-29T15:53:27.196Z,99683.61
2024-02-29T15:55:55.163Z,99681.75
2024-02-29T15:58:22.978Z,99676.95
2024-02-29T16:00:50.613Z,99672.84
2024-02-29T16:03:18.570Z,99671.70
2024-02-29T16:05:46.216Z,99667.08
2024-02-29T16:08:14.189Z,99665.76
2024-02-29T16:10:41.743Z,99663.92
2024-02-29T16:13:12.515Z,99665.41
2024-02-29T16:15:40.356Z,99664.10
2024-02-29T16:18:08.251Z,99663.64
2024-02-29T16:20:35.904Z,99662.17
2024-02-29T16:23:03.761Z,99659.77
2024-02-29T16:25:31.774Z,99661.77
2024-02-29T16:27:59.639Z,99660.94
2024-02-29T16:30:27.440Z,99661.57
2024-02-29T16:32:55.326Z,99660.10
2024-02-29T16:35:23.388Z,99660.92
2024-02-29T16:37:51.140Z,99657.57
2024-02-29T16:40:18.991Z,99656.30
2024-02-29T16:42:46.746Z,99657.14
2024-02-29T16:45:14.640Z,99653.63
2024-02-29T16:47:42.421Z,99653.05
2024-02-29T16:50:10.166Z,99646.56
2024-02-29T16:52:38.058Z,99647.58
2024-02-29T16:55:06.367Z,99644.77
2024-02-29T16:57:34.508Z,99644.02
2024-02-29T17:00:02.235Z,99642.04
2024-02-29T17:02:29.903Z,99641.42
2024-02-29T17:04:57.674Z,99644.32
2024-02-29T17:07:25.391Z,99645.62
2024-02-29T17:09:53.209Z,99642.16
2024-02-29T17:12:20.971Z,99643.20
2024-02-29T17:14:48.833Z,99640.55
2024-02-29T17:17:16.596Z,99638.80
2024-02-29T17:19:44.662Z,99638.79
2024-02-29T17:22:12.512Z,99635.21
2024-02-29T17:24:40.291Z,99635.05
2024-02-29T17:27:08.045Z,99633.00
2024-02-29T17:29:35.857Z,99633.91
2024-02-29T17:32:03.682Z,99636.69
2024-02-29T17:34:31.474Z,99638.52
2024-02-29T17:36:59.707Z,99637.61
2024-02-29T17:39:27.390Z,99636.67
2024-02-29T17:41:55.143Z,99637.75
2024-02-29T17:44:22.910Z,99632.89
2024-02-29T17:46:50.676Z,99634.44
2024-02-29T17:49:18.564Z,99632.67
2024-02-29T17:51:46.365Z,99627.09
2024-02-29T17:54:14.073Z,99627.46
2024-02-29T17:56:41.629Z,99627.45
2024-02-29T17:59:09.490Z,99631.30
2024-02-29T18:01:37.295Z,99631.95
2024-02-29T18:04:05.262Z,99628.94
2024-02-29T18:06:33.107Z,99621.99
2024-02-29T18:09:00.859Z,99620.48
2024-02-29T18:11:29.004Z,99620.29
2024-02-29T18:13:56.792Z,99617.13
2024-02-29T18:16:24.596Z,99614.16
2024-02-29T18:18:52.592Z,99617.57
2024-02-29T18:21:20.406Z,99613.26
2024-02-29T18:23:48.152Z,99617.38
2024-02-29T18:26:16.522Z,99616.60
2024-02-29T18:28:44.507Z,99619.79
2024-02-29T18:31:12.304Z,99619.52
2024-02-29T18:33:40.608Z,99620.64
2024-02-29T18:36:08.427Z,99613.02
2024-02-29T18:38:36.274Z,99611.27
2024-02-29T18:41:03.948Z,99609.39
2024-02-29T18:43:31.635Z,99609.31
2024-02-29T18:46:05.703Z,99607.27
2024-02-29T18:48:34.706Z,99606.39
2024-02-29T18:51:02.398Z,99607.34
2024-02-29T18:53:30.460Z,99609.99
2024-02-29T18:55:58.106Z,99612.11
2024-02-29T18:58:25.825Z,99610.55
2024-02-29T19:00:53.806Z,99610.16
2024-02-29T19:03:21.599Z,99605.74
2024-02-29T19:05:49.360Z,99606.99
2024-02-29T19:08:17.019Z,99604.18
2024-02-29T19:10:44.808Z,99602.62
2024-02-29T19:13:13.087Z,99597.58
2024-02-29T19:15:41.137Z,99593.05
2024-02-29T19:18:09.176Z,99587.80
2024-02-29T19:20:36.774Z,99585.83
2024-02-29T19:23:04.833Z,99584.94
2024-02-29T19:25:32.615Z,99581.61
2024-02-29T19:28:00.528Z,99577.83
2024-02-29T19:30:28.445Z,99577.64
2024-02-29T19:32:56.134Z,99573.80
2024-02-29T19:35:23.853Z,99572.71
2024-02-29T19:37:51.619Z,99569.84
2024-02-29T19:40:19.748Z,99567.42
2024-02-29T19:42:47.434Z,99565.87
2024-02-29T19:45:15.115Z,99566.19
2024-02-29T19:47:42.824Z,99566.80
2024-02-29T19:50:10.646Z,99563.64
2024-02-29T19:52:38.556Z,99565.16
2024-02-29T19:55:06.779Z,99561.65
2024-02-29T19:57:35.266Z,99562.08
2024-02-29T20:00:03.040Z,99556.80
2024-02-29T20:02:30.698Z,99555.19
2024-02-29T20:04:58.466Z,99552.08
2024-02-29T20:07:26.207Z,99555.25
2024-02-29T20:09:54.015Z,99552.88
2024-02-29T20:12:21.864Z,99550.45
2024-02-29T20:14:49.928Z,99551.10
2024-02-29T20:17:17.791Z,99549.49
2024-02-29T20:19:45.915Z,99546.30
2024-02-29T20:22:13.760Z,99542.91
2024-02-29T20:24:41.482Z,99536.70
2024-02-29T20:27:09.155Z,99534.15
2024-02-29T20:29:37.019Z,99532.58
2024-02-29T20:32:04.893Z,99535.15
2024-02-29T20:34:32.736Z,99534.60
2024-02-29T20:37:00.565Z,99530.06
2024-02-29T20:39:28.375Z,99531.54
2024-02-29T20:41:56.147Z,99527.52
2024-02-29T20:44:23.922Z,99525.46
2024-02-29T20:46:51.791Z,99524.12
2024-02-29T20:49:19.464Z,99525.23
2024-02-29T20:51:47.231Z,99524.38
2024-02-29T20:54:14.957Z,99520.10
2024-02-29T20:56:42.739Z,99518.23
2024-02-29T20:59:10.802Z,99511.42
2024-02-29T21:01:38.554Z,99507.29
2024-02-29T21:04:06.455Z,99509.11
2024-02-29T21:06:33.996Z,99505.13
2024-02-29T21:09:01.758Z,99505.80
2024-02-29T21:11:29.540Z,99500.33
2024-02-29T21:13:57.273Z,99498.04
2024-02-29T21:16:24.917Z,99495.41
2024-02-29T21:18:52.717Z,99489.48
2024-02-29T21:21:20.476Z,99487.34
2024-02-29T21:23:48.226Z,99485.42
2024-02-29T21:26:15.889Z,99482.88
2024-02-29T21:28:43.673Z,99482.53
2024-02-29T21:31:11.545Z,99485.15
2024-02-29T21:33:39.289Z,99476.83
2024-02-29T21:36:06.949Z,99478.02
2024-02-29T21:38:34.607Z,99476.59
2024-02-29T21:41:02.685Z,99475.12
2024-02-29T21:43:30.779Z,99473.61
2024-02-29T21:45:58.534Z,99471.41
2024-02-29T21:48:26.292Z,99471.80
2024-02-29T21:50:54.146Z,99467.13
2024-02-29T21:53:22.012Z,99462.39
2024-02-29T21:55:49.687Z,99458.54
2024-02-29T21:58:17.465Z,99454.70
2024-02-29T22:00:45.164Z,99456.08
2024-02-29T22:03:16.251Z,99450.71
2024-02-29T22:05:44.011Z,99453.17
2024-02-29T22:08:11.874Z,99450.59
2024-02-29T22:10:39.660Z,99445.05
2024-02-29T22:13:07.651Z,99442.95
2024-02-29T22:15:35.285Z,99442.41
2024-02-29T22:18:03.009Z,99440.65
2024-02-29T22:20:30.794Z,99442.73
2024-02-29T22:22:58.668Z,99438.44
2024-02-29T22:25:26.569Z,99431.21
2024-02-29T22:27:54.651Z,99434.41
2024-02-29T22:30:22.359Z,99426.25
2024-02-29T22:32:50.051Z,99422.29
2024-02-29T22:35:17.806Z,99419.17
2024-02-29T22:37:45.553Z,99416.95
2024-02-29T22:40:13.433Z,99413.01
2024-02-29T22:42:41.390Z,99412.13
2024-02-29T22:45:09.245Z,99407.09
2024-02-29T22:47:37.368Z,99408.83
2024-02-29T22:50:05.185Z,99409.83
2024-02-29T22:52:33.043Z,99406.39
2024-02-29T22:55:00.882Z,99406.63
2024-02-29T22:57:28.894Z,99404.23
2024-02-29T22:59:56.560Z,99395.92
2024-02-29T23:02:24.433Z,99393.20
2024-02-29T23:04:52.283Z,99385.41
2024-02-29T23:07:20.381Z,99382.64
2024-02-29T23:09:48.768Z,99381.61
2024-02-29T23:12:16.498Z,99374.87
2024-02-29T23:14:44.171Z,99376.29
2024-02-29T23:17:12.023Z,99373.00
2024-02-29T23:19:39.893Z,99368.66
2024-02-29T23:22:07.594Z,99367.63
2024-02-29T23:24:35.931Z,99370.59
2024-02-29T23:27:03.905Z,99365.23
2024-02-29T23:29:32.061Z,99365.45
2024-02-29T23:31:59.729Z,99365.15
2024-02-29T23:34:27.638Z,99362.22
2024-02-29T23:36:55.662Z,99355.67
2024-02-29T23:39:23.532Z,99357.24
2024-02-29T23:41:51.198Z,99353.49
2024-02-29T23:44:19.186Z,99347.98
2024-02-29T23:46:46.950Z,99350.49
2024-02-29T23:49:15.313Z,99344.10
2024-02-29T23:51:43.089Z,99342.55
2024-02-29T23:54:10.836Z,99339.77
2024-02-29T23:56:38.507Z,99337.55
2024-02-29T23:59:06.575Z,99333.93
